NOZ31F ENGM-EGKK
Flight info
| Callsign | NOZ31F |
|---|---|
| Flight time | N/A |
| Altitude | 36000 |
| Route | VIPPA DCT ELKOP DCT AMSEV DCT UPGAS DCT TIPAN DCT WECOW DCT BINBO DCT AKOKO N866 BUKUT P7 BARMI |
| Aircraft | B738/M-SDE2E3FGHIRWXY/LB1 |
Departure
| Time | 2026-05-04 16:16 |
|---|---|
| Airport | Oslo-Gardermoen International Airport (ENGM) |
Arrival
| Time | N/A |
|---|---|
| Airport | London Gatwick Airport (EGKK) |
| Time | Latitude | Longitude | Altitude | Speed | Heading |
|---|---|---|---|---|---|
| 2026-05-04 15:45 | 60.19670 | 11.09974 | 684 ft | 0 kts | 106° |
| 2026-05-04 16:08 | 60.19673 | 11.09960 | 684 ft | 4 kts | 106° |
| 2026-05-04 16:08 | 60.19683 | 11.09885 | 684 ft | 0 kts | 106° |
| 2026-05-04 16:11 | 60.19688 | 11.09895 | 684 ft | 1 kts | 40° |
| 2026-05-04 16:12 | 60.19831 | 11.09834 | 683 ft | 12 kts | 17° |
| 2026-05-04 16:12 | 60.20028 | 11.10142 | 684 ft | 15 kts | 107° |
| 2026-05-04 16:13 | 60.19947 | 11.10710 | 682 ft | 24 kts | 106° |
| 2026-05-04 16:13 | 60.19858 | 11.11325 | 682 ft | 22 kts | 106° |
| 2026-05-04 16:14 | 60.19937 | 11.11580 | 682 ft | 15 kts | 16° |
| 2026-05-04 16:14 | 60.20175 | 11.11765 | 686 ft | 19 kts | 75° |
| 2026-05-04 16:15 | 60.20082 | 11.12225 | 683 ft | 5 kts | 188° |
| 2026-05-04 16:16 | 60.19577 | 11.11933 | 683 ft | 100 kts | 195° |
| 2026-05-04 16:16 | 60.16535 | 11.10147 | 2018 ft | 176 kts | 201° |
| 2026-05-04 16:17 | 60.13826 | 11.08623 | 2623 ft | 223 kts | 201° |
| 2026-05-04 16:18 | 60.08811 | 11.06748 | 4458 ft | 248 kts | 214° |
| 2026-05-04 16:18 | 60.07877 | 11.05455 | 4995 ft | 247 kts | 221° |
| 2026-05-04 16:19 | 60.03317 | 10.98475 | 7878 ft | 251 kts | 221° |
| 2026-05-04 16:19 | 60.00479 | 10.94201 | 9550 ft | 260 kts | 221° |
| 2026-05-04 16:20 | 59.95671 | 10.87033 | 10690 ft | 319 kts | 220° |
| 2026-05-04 16:20 | 59.92029 | 10.81697 | 12227 ft | 329 kts | 221° |
| 2026-05-04 16:21 | 59.86420 | 10.73530 | 14868 ft | 334 kts | 223° |
| 2026-05-04 16:22 | 59.82688 | 10.68129 | 16906 ft | 330 kts | 224° |
| 2026-05-04 16:22 | 59.77106 | 10.60052 | 19235 ft | 336 kts | 225° |
| 2026-05-04 16:23 | 59.71309 | 10.51678 | 20953 ft | 352 kts | 225° |
| 2026-05-04 16:24 | 59.63217 | 10.40082 | 23390 ft | 366 kts | 225° |
| 2026-05-04 16:25 | 59.59051 | 10.34141 | 24265 ft | 373 kts | 225° |
| 2026-05-04 16:26 | 59.50499 | 10.22007 | 26056 ft | 385 kts | 225° |
| 2026-05-04 16:26 | 59.43848 | 10.12614 | 27081 ft | 399 kts | 224° |